createdAt,value
2023-02-06T00:01:52.254Z,11.40
2023-02-06T00:04:55.238Z,10.60
2023-02-06T00:07:58.056Z,9.95
2023-02-06T00:11:08.891Z,7.03
2023-02-06T00:14:11.644Z,9.43
2023-02-06T00:17:14.676Z,10.80
2023-02-06T00:20:17.522Z,9.63
2023-02-06T00:23:20.625Z,10.60
2023-02-06T00:26:24.636Z,8.95
2023-02-06T00:29:27.789Z,9.45
2023-02-06T00:32:30.679Z,11.00
2023-02-06T00:35:33.902Z,11.85
2023-02-06T00:38:38.283Z,10.40
2023-02-06T00:41:41.476Z,9.70
2023-02-06T00:44:44.166Z,11.90
2023-02-06T00:47:47.157Z,10.80
2023-02-06T00:50:50.705Z,9.83
2023-02-06T00:53:53.735Z,11.05
2023-02-06T00:56:56.475Z,9.93
2023-02-06T00:59:59.455Z,8.95
2023-02-06T01:03:02.911Z,8.73
2023-02-06T01:06:06.124Z,9.25
2023-02-06T01:09:08.880Z,10.07
2023-02-06T01:12:11.863Z,10.17
2023-02-06T01:15:14.841Z,9.18
2023-02-06T01:18:18.030Z,8.40
2023-02-06T01:21:23.893Z,8.97
2023-02-06T01:24:26.897Z,9.40
2023-02-06T01:27:29.585Z,9.20
2023-02-06T01:30:33.789Z,9.85
2023-02-06T01:33:37.063Z,8.68
2023-02-06T01:36:40.155Z,9.52
2023-02-06T01:39:42.900Z,9.70
2023-02-06T01:42:45.873Z,7.47
2023-02-06T01:45:50.473Z,8.93
2023-02-06T01:48:54.864Z,9.65
2023-02-06T01:52:20.160Z,10.10
2023-02-06T01:55:24.027Z,9.65
2023-02-06T01:58:31.500Z,10.23
2023-02-06T02:01:34.892Z,9.85
2023-02-06T02:04:37.988Z,9.20
2023-02-06T02:08:09.335Z,8.70
2023-02-06T02:11:17.890Z,8.63
2023-02-06T02:14:20.688Z,9.10
2023-02-06T02:17:57.898Z,8.18
2023-02-06T02:21:34.972Z,8.48
2023-02-06T02:24:59.391Z,7.90
2023-02-06T02:28:20.453Z,10.13
2023-02-06T02:31:45.801Z,9.43
2023-02-06T02:35:28.906Z,5.28
2023-02-06T02:39:03.883Z,4.40
2023-02-06T02:42:20.048Z,7.75
2023-02-06T02:45:39.813Z,10.27
2023-02-06T02:48:46.062Z,8.57
2023-02-06T02:51:50.671Z,9.57
2023-02-06T02:54:53.693Z,7.93
2023-02-06T02:58:07.759Z,9.13
2023-02-06T03:01:16.416Z,8.48
2023-02-06T03:04:35.338Z,9.32
2023-02-06T03:07:53.967Z,9.20
2023-02-06T03:11:05.881Z,6.53
2023-02-06T03:14:34.969Z,8.07
2023-02-06T03:18:09.313Z,6.70
2023-02-06T03:21:16.845Z,3.57
2023-02-06T03:24:32.056Z,7.25
2023-02-06T03:27:37.162Z,8.27
2023-02-06T03:30:43.995Z,9.97
2023-02-06T03:34:01.781Z,5.40
2023-02-06T03:37:04.852Z,7.93
2023-02-06T03:40:08.975Z,9.10
2023-02-06T03:43:18.854Z,6.00
2023-02-06T03:46:23.779Z,6.03
2023-02-06T03:49:31.354Z,6.53
2023-02-06T03:52:40.720Z,7.10
2023-02-06T03:55:46.268Z,6.85
2023-02-06T03:58:49.087Z,7.00
2023-02-06T04:01:55.452Z,9.53
2023-02-06T04:04:58.539Z,10.50
2023-02-06T04:08:01.599Z,9.85
2023-02-06T04:11:04.902Z,8.38
2023-02-06T04:14:07.662Z,11.63
2023-02-06T04:17:11.746Z,13.27
2023-02-06T04:20:14.507Z,12.18
2023-02-06T04:23:17.809Z,11.60
2023-02-06T04:26:20.538Z,12.85
2023-02-06T04:29:23.537Z,10.13
2023-02-06T04:32:26.278Z,9.40
2023-02-06T04:35:29.390Z,10.55
2023-02-06T04:38:32.041Z,10.57
2023-02-06T04:41:35.388Z,11.93
2023-02-06T04:44:38.724Z,9.45
2023-02-06T04:47:41.876Z,9.77
2023-02-06T04:50:44.644Z,9.32
2023-02-06T04:53:48.093Z,8.67
2023-02-06T04:56:51.229Z,11.40
2023-02-06T04:59:54.250Z,11.80
2023-02-06T05:02:57.090Z,11.70
2023-02-06T05:06:01.573Z,8.63
2023-02-06T05:09:05.208Z,9.85
2023-02-06T05:12:08.539Z,9.38
2023-02-06T05:15:11.260Z,7.50
2023-02-06T05:18:15.476Z,9.52
2023-02-06T05:21:18.694Z,9.77
2023-02-06T05:24:21.667Z,10.73
2023-02-06T05:27:25.740Z,9.95
2023-02-06T05:30:29.105Z,8.20
2023-02-06T05:33:32.134Z,11.03
2023-02-06T05:36:35.226Z,9.63
2023-02-06T05:39:37.932Z,9.52
2023-02-06T05:42:41.155Z,8.80
2023-02-06T05:45:43.839Z,9.20
2023-02-06T05:48:47.012Z,5.75
2023-02-06T05:51:49.672Z,8.32
2023-02-06T05:54:52.926Z,7.90
2023-02-06T05:57:55.649Z,8.05
2023-02-06T06:00:58.956Z,8.80
2023-02-06T06:04:02.222Z,13.93
2023-02-06T06:07:05.235Z,13.10
2023-02-06T06:10:09.374Z,11.07
2023-02-06T06:13:12.200Z,11.27
2023-02-06T06:16:15.663Z,10.57
2023-02-06T06:19:18.835Z,12.98
2023-02-06T06:22:22.296Z,16.20
2023-02-06T06:25:24.967Z,15.73
2023-02-06T06:28:28.157Z,17.30
2023-02-06T06:31:30.926Z,15.40
2023-02-06T06:34:34.143Z,10.50
2023-02-06T06:37:37.129Z,11.30
2023-02-06T06:40:41.345Z,12.50
2023-02-06T06:43:44.406Z,11.35
2023-02-06T06:46:47.356Z,8.35
2023-02-06T06:49:50.180Z,12.35
2023-02-06T06:52:53.176Z,15.98
2023-02-06T06:55:56.099Z,9.37
2023-02-06T06:59:00.186Z,14.07
2023-02-06T07:02:03.229Z,13.13
2023-02-06T07:05:07.574Z,13.00
2023-02-06T07:08:10.440Z,15.27
2023-02-06T07:11:14.974Z,15.27
2023-02-06T07:14:17.797Z,12.32
2023-02-06T07:17:20.978Z,9.07
2023-02-06T07:20:23.862Z,11.60
2023-02-06T07:23:27.396Z,11.00
2023-02-06T07:26:30.482Z,10.93
2023-02-06T07:29:33.649Z,11.68
2023-02-06T07:32:37.144Z,10.13
2023-02-06T07:35:43.055Z,9.83
2023-02-06T07:38:45.792Z,14.05
2023-02-06T07:41:51.090Z,7.32
2023-02-06T07:44:55.438Z,11.88
2023-02-06T07:47:58.453Z,9.73
2023-02-06T07:51:06.291Z,9.90
2023-02-06T07:54:09.860Z,10.43
2023-02-06T07:57:12.632Z,4.60
2023-02-06T08:00:16.342Z,4.35
2023-02-06T08:03:21.056Z,6.60
2023-02-06T08:06:25.147Z,12.52
2023-02-06T08:09:28.310Z,6.00
2023-02-06T08:12:31.280Z,8.00
2023-02-06T08:15:34.673Z,7.95
2023-02-06T08:18:38.556Z,6.90
2023-02-06T08:21:41.672Z,6.97
2023-02-06T08:24:45.578Z,5.78
2023-02-06T08:27:53.430Z,5.62
2023-02-06T08:30:56.206Z,4.00
2023-02-06T08:33:59.536Z,3.60
2023-02-06T08:37:02.251Z,5.50
2023-02-06T08:40:06.142Z,9.85
2023-02-06T08:43:08.917Z,3.05
2023-02-06T08:46:11.958Z,7.40
2023-02-06T08:49:20.429Z,8.77
2023-02-06T08:52:23.560Z,4.87
2023-02-06T08:55:26.318Z,3.57
2023-02-06T08:58:29.425Z,5.32
2023-02-06T09:01:34.211Z,6.12
2023-02-06T09:04:37.897Z,7.90
2023-02-06T09:07:40.721Z,8.20
2023-02-06T09:10:43.776Z,7.20
2023-02-06T09:13:49.343Z,2.83
2023-02-06T09:16:53.257Z,5.15
2023-02-06T09:19:56.105Z,7.82
2023-02-06T09:22:59.209Z,1.33
2023-02-06T09:26:02.062Z,7.27
2023-02-06T09:29:08.035Z,4.45
2023-02-06T09:32:10.802Z,6.20
2023-02-06T09:35:13.955Z,3.20
2023-02-06T09:38:16.728Z,5.87
2023-02-06T09:41:29.552Z,2.33
2023-02-06T09:44:49.301Z,6.35
2023-02-06T09:48:14.653Z,6.43
2023-02-06T09:51:40.159Z,5.87
2023-02-06T09:55:10.532Z,4.97
2023-02-06T09:58:49.452Z,7.37
2023-02-06T10:02:19.146Z,2.87
2023-02-06T10:05:29.272Z,7.22
2023-02-06T10:08:40.992Z,7.43
2023-02-06T10:11:52.242Z,7.27
2023-02-06T10:15:01.822Z,5.93
2023-02-06T10:18:12.045Z,6.28
2023-02-06T10:21:17.739Z,7.97
2023-02-06T10:24:42.331Z,7.25
2023-02-06T10:27:48.027Z,7.60
2023-02-06T10:31:15.128Z,2.75
2023-02-06T10:34:42.135Z,7.90
2023-02-06T10:38:05.156Z,6.70
2023-02-06T10:41:21.492Z,8.45
2023-02-06T10:44:36.646Z,8.23
2023-02-06T10:47:55.389Z,7.27
2023-02-06T10:51:21.578Z,8.70
2023-02-06T10:54:31.648Z,8.30
2023-02-06T10:57:35.041Z,7.37
2023-02-06T11:00:39.443Z,7.43
2023-02-06T11:03:53.004Z,8.97
2023-02-06T11:07:00.884Z,8.30
2023-02-06T11:10:05.378Z,8.88
2023-02-06T11:13:14.891Z,9.18
2023-02-06T11:16:24.768Z,8.73
2023-02-06T11:19:31.175Z,9.20
2023-02-06T11:22:44.254Z,8.55
2023-02-06T11:26:10.832Z,10.32
2023-02-06T11:29:32.902Z,7.03
2023-02-06T11:32:41.387Z,7.07
2023-02-06T11:35:55.313Z,9.40
2023-02-06T11:39:01.019Z,9.25
2023-02-06T11:42:18.444Z,8.30
2023-02-06T11:45:30.551Z,9.23
2023-02-06T11:48:46.656Z,9.20
2023-02-06T11:51:51.726Z,10.73
2023-02-06T11:54:56.653Z,11.52
2023-02-06T11:58:04.864Z,11.15
2023-02-06T12:01:16.287Z,10.18
2023-02-06T12:04:47.343Z,10.20
2023-02-06T12:07:56.446Z,10.80
2023-02-06T12:11:05.954Z,10.73
2023-02-06T12:14:23.961Z,10.73
2023-02-06T12:17:35.259Z,8.43
2023-02-06T12:20:48.502Z,10.63
2023-02-06T12:24:05.035Z,9.00
2023-02-06T12:27:41.328Z,8.18
2023-02-06T12:30:57.874Z,9.40
2023-02-06T12:34:31.902Z,7.97
2023-02-06T12:37:44.400Z,7.43
2023-02-06T12:41:24.311Z,8.90
2023-02-06T12:44:42.245Z,8.90
2023-02-06T12:47:52.134Z,8.27
2023-02-06T12:51:10.289Z,4.53
2023-02-06T12:54:28.634Z,7.17
2023-02-06T12:57:32.753Z,4.53
2023-02-06T13:00:52.200Z,6.18
2023-02-06T13:03:58.491Z,9.07
2023-02-06T13:07:11.831Z,7.37
2023-02-06T13:10:24.967Z,9.60
2023-02-06T13:13:35.198Z,9.20
2023-02-06T13:17:16.867Z,9.40
2023-02-06T13:20:21.729Z,8.02
2023-02-06T13:23:24.796Z,9.57
2023-02-06T13:26:46.457Z,7.10
2023-02-06T13:29:52.841Z,8.33
2023-02-06T13:33:14.256Z,8.38
2023-02-06T13:36:24.518Z,9.02
2023-02-06T13:39:31.074Z,6.75
2023-02-06T13:42:54.630Z,8.93
2023-02-06T13:46:01.587Z,4.80
2023-02-06T13:49:23.631Z,6.70
2023-02-06T13:52:42.678Z,9.23
2023-02-06T13:55:57.375Z,8.80
2023-02-06T13:59:06.590Z,10.17
2023-02-06T14:02:14.766Z,7.43
2023-02-06T14:05:26.212Z,7.78
2023-02-06T14:08:57.680Z,10.02
2023-02-06T14:12:39.042Z,10.57
2023-02-06T14:16:18.029Z,8.47
2023-02-06T14:19:38.297Z,9.30
2023-02-06T14:22:55.656Z,4.10
2023-02-06T14:26:18.067Z,8.15
2023-02-06T14:29:35.554Z,9.88
2023-02-06T14:32:54.525Z,5.90
2023-02-06T14:36:06.657Z,7.68
2023-02-06T14:39:53.263Z,4.12
2023-02-06T14:42:58.703Z,10.63
2023-02-06T14:46:07.920Z,4.27
2023-02-06T14:49:19.013Z,5.72
2023-02-06T14:52:25.822Z,7.12
2023-02-06T14:55:41.142Z,7.78
2023-02-06T14:58:46.655Z,8.80
2023-02-06T15:01:52.930Z,7.95
2023-02-06T15:04:56.978Z,7.10
2023-02-06T15:08:02.559Z,5.28
2023-02-06T15:11:18.465Z,9.20
2023-02-06T15:14:33.288Z,8.70
2023-02-06T15:17:36.476Z,7.25
2023-02-06T15:20:44.682Z,8.73
2023-02-06T15:24:32.724Z,9.60
2023-02-06T15:27:37.749Z,7.62
2023-02-06T15:30:41.083Z,9.00
2023-02-06T15:33:44.337Z,10.50
2023-02-06T15:36:47.733Z,8.43
2023-02-06T15:39:50.844Z,9.38
2023-02-06T15:42:54.422Z,8.95
2023-02-06T15:46:00.734Z,9.40
2023-02-06T15:49:04.456Z,10.55
2023-02-06T15:52:07.672Z,10.63
2023-02-06T15:55:27.779Z,10.43
2023-02-06T15:58:32.502Z,8.20
2023-02-06T16:01:40.045Z,11.10
2023-02-06T16:04:43.270Z,10.65
2023-02-06T16:07:49.705Z,11.65
2023-02-06T16:10:55.951Z,11.35
2023-02-06T16:13:59.287Z,11.70
2023-02-06T16:17:14.405Z,11.52
2023-02-06T16:20:32.415Z,11.10
2023-02-06T16:24:03.460Z,11.55
2023-02-06T16:27:17.249Z,12.00
2023-02-06T16:30:28.412Z,12.60
2023-02-06T16:33:38.842Z,12.97
2023-02-06T16:36:41.987Z,13.23
2023-02-06T16:39:46.030Z,15.23
2023-02-06T16:42:49.189Z,15.57
2023-02-06T16:45:52.631Z,19.02
2023-02-06T16:48:58.446Z,20.60
2023-02-06T16:52:01.661Z,23.67
2023-02-06T16:55:05.185Z,24.17
2023-02-06T16:58:15.857Z,25.17
2023-02-06T17:01:25.157Z,26.42
2023-02-06T17:04:28.571Z,30.30
2023-02-06T17:07:35.403Z,26.03
2023-02-06T17:10:38.552Z,24.58
2023-02-06T17:13:42.013Z,23.05
2023-02-06T17:16:45.004Z,23.23
2023-02-06T17:19:50.112Z,23.03
2023-02-06T17:22:53.359Z,20.17
2023-02-06T17:25:56.904Z,19.37
2023-02-06T17:28:59.858Z,18.10
2023-02-06T17:32:04.009Z,19.40
2023-02-06T17:35:08.393Z,20.10
2023-02-06T17:38:11.627Z,23.27
2023-02-06T17:41:15.044Z,25.37
2023-02-06T17:44:19.430Z,26.95
2023-02-06T17:47:23.886Z,26.70
2023-02-06T17:50:29.078Z,25.70
2023-02-06T17:53:31.940Z,25.88
2023-02-06T17:56:36.574Z,25.80
2023-02-06T17:59:40.051Z,28.87
2023-02-06T18:02:43.876Z,35.83
2023-02-06T18:05:56.988Z,37.72
2023-02-06T18:08:59.970Z,29.95
2023-02-06T18:12:04.797Z,23.27
2023-02-06T18:15:09.313Z,24.23
2023-02-06T18:18:13.051Z,25.67
2023-02-06T18:21:19.999Z,24.83
2023-02-06T18:24:24.433Z,27.47
2023-02-06T18:27:27.433Z,27.42
2023-02-06T18:30:30.881Z,26.65
2023-02-06T18:33:36.448Z,22.87
2023-02-06T18:36:40.548Z,23.50
2023-02-06T18:39:44.098Z,24.37
2023-02-06T18:42:51.484Z,26.12
2023-02-06T18:45:55.249Z,27.03
2023-02-06T18:49:00.607Z,27.92
2023-02-06T18:52:05.163Z,28.60
2023-02-06T18:55:10.606Z,32.13
2023-02-06T18:58:14.476Z,33.13
2023-02-06T19:01:21.726Z,35.10
2023-02-06T19:04:25.362Z,31.73
2023-02-06T19:07:30.760Z,31.97
2023-02-06T19:10:34.649Z,31.83
2023-02-06T19:13:43.076Z,37.40
2023-02-06T19:16:48.556Z,36.00
2023-02-06T19:19:54.044Z,37.15
2023-02-06T19:22:58.405Z,36.20
2023-02-06T19:26:05.774Z,38.70
2023-02-06T19:29:34.803Z,35.60
2023-02-06T19:32:41.485Z,33.95
2023-02-06T19:35:44.913Z,37.53
2023-02-06T19:38:51.167Z,37.83
2023-02-06T19:41:56.227Z,39.28
2023-02-06T19:45:00.319Z,48.08
2023-02-06T19:48:07.090Z,42.13
2023-02-06T19:51:14.174Z,35.58
2023-02-06T19:54:18.269Z,42.25
2023-02-06T19:57:22.594Z,41.10
2023-02-06T20:00:27.123Z,39.97
2023-02-06T20:03:31.509Z,45.12
2023-02-06T20:06:36.371Z,45.33
2023-02-06T20:09:47.396Z,43.60
2023-02-06T20:12:54.765Z,37.58
2023-02-06T20:16:04.056Z,45.10
2023-02-06T20:19:23.576Z,40.88
2023-02-06T20:22:27.824Z,39.38
2023-02-06T20:25:31.964Z,37.22
2023-02-06T20:28:35.586Z,42.40
2023-02-06T20:31:40.047Z,37.00
2023-02-06T20:34:44.296Z,35.17
2023-02-06T20:37:48.034Z,27.40
2023-02-06T20:40:55.510Z,25.20
2023-02-06T20:44:00.717Z,29.73
2023-02-06T20:47:04.527Z,35.40
2023-02-06T20:50:08.991Z,31.45
2023-02-06T20:53:12.576Z,32.85
2023-02-06T20:56:22.207Z,32.47
2023-02-06T20:59:25.827Z,26.50
2023-02-06T21:02:29.613Z,26.83
2023-02-06T21:05:33.277Z,29.05
2023-02-06T21:08:36.434Z,27.02
2023-02-06T21:11:45.754Z,22.37
2023-02-06T21:14:48.839Z,20.92
2023-02-06T21:17:52.174Z,17.73
2023-02-06T21:20:56.967Z,22.00
2023-02-06T21:24:00.240Z,20.40
2023-02-06T21:27:03.108Z,19.27
2023-02-06T21:30:06.937Z,15.75
2023-02-06T21:33:09.725Z,16.33
2023-02-06T21:36:12.928Z,19.30
2023-02-06T21:39:22.279Z,16.83
2023-02-06T21:42:27.645Z,17.07
2023-02-06T21:45:30.413Z,16.85
2023-02-06T21:48:34.437Z,15.70
2023-02-06T21:51:37.563Z,13.80
2023-02-06T21:54:40.604Z,17.00
2023-02-06T21:57:43.438Z,18.67
2023-02-06T22:00:47.660Z,17.37
2023-02-06T22:03:51.456Z,19.23
2023-02-06T22:06:54.134Z,19.55
2023-02-06T22:09:57.165Z,20.48
2023-02-06T22:12:59.930Z,20.37
2023-02-06T22:16:02.975Z,19.17
2023-02-06T22:19:07.077Z,17.62
2023-02-06T22:22:10.124Z,17.42
2023-02-06T22:25:12.941Z,22.20
2023-02-06T22:28:16.234Z,22.20
2023-02-06T22:31:22.549Z,21.67
2023-02-06T22:34:25.793Z,21.83
2023-02-06T22:37:31.362Z,24.08
2023-02-06T22:40:34.350Z,21.60
2023-02-06T22:43:38.736Z,21.30
2023-02-06T22:46:42.640Z,22.40
2023-02-06T22:49:45.553Z,22.95
2023-02-06T22:53:07.338Z,18.87
2023-02-06T22:56:31.260Z,25.08
2023-02-06T22:59:34.448Z,21.58
2023-02-06T23:02:38.885Z,26.05
2023-02-06T23:05:41.937Z,25.77
2023-02-06T23:08:45.019Z,24.55
2023-02-06T23:11:48.546Z,20.67
2023-02-06T23:14:51.264Z,20.57
2023-02-06T23:17:54.309Z,20.98
2023-02-06T23:20:59.700Z,21.62
2023-02-06T23:24:03.762Z,23.83
2023-02-06T23:27:06.418Z,22.20
2023-02-06T23:30:10.144Z,21.85
2023-02-06T23:33:13.153Z,23.60
2023-02-06T23:36:18.065Z,23.47
2023-02-06T23:39:21.178Z,22.48
2023-02-06T23:42:24.290Z,20.80
2023-02-06T23:45:28.085Z,21.97
2023-02-06T23:48:31.378Z,21.37
2023-02-06T23:51:35.274Z,22.77
2023-02-06T23:54:38.436Z,21.83
2023-02-06T23:57:41.929Z,22.75
